sensor_id;sensor_type;location;lat;lon;timestamp;P1;durP1;ratioP1;P2;durP2;ratioP2
1753;SDS011;58380;48.312;9.246;2023-02-23T07:00:12;73.07;;;20.10;;
1753;SDS011;58380;48.312;9.246;2023-02-23T07:05:05;58.42;;;21.42;;
1753;SDS011;58380;48.312;9.246;2023-02-23T07:07:32;49.70;;;21.38;;
1753;SDS011;58380;48.312;9.246;2023-02-23T07:09:57;62.10;;;24.27;;
1753;SDS011;58380;48.312;9.246;2023-02-23T07:12:23;45.90;;;22.43;;
1753;SDS011;58380;48.312;9.246;2023-02-23T07:14:48;39.30;;;19.30;;
1753;SDS011;58380;48.312;9.246;2023-02-23T07:17:14;39.57;;;17.27;;
1753;SDS011;58380;48.312;9.246;2023-02-23T07:19:40;33.17;;;16.50;;
1753;SDS011;58380;48.312;9.246;2023-02-23T07:22:06;37.40;;;16.48;;
1753;SDS011;58380;48.312;9.246;2023-02-23T07:24:31;33.73;;;16.27;;
1753;SDS011;58380;48.312;9.246;2023-02-23T07:26:57;31.37;;;15.13;;
1753;SDS011;58380;48.312;9.246;2023-02-23T07:29:22;34.00;;;17.60;;
1753;SDS011;58380;48.312;9.246;2023-02-23T07:31:48;67.87;;;30.10;;
1753;SDS011;58380;48.312;9.246;2023-02-23T07:34:14;64.43;;;27.85;;
1753;SDS011;58380;48.312;9.246;2023-02-23T07:39:05;53.35;;;22.85;;
1753;SDS011;58380;48.312;9.246;2023-02-23T07:41:31;37.72;;;18.17;;
1753;SDS011;58380;48.312;9.246;2023-02-23T07:43:57;39.38;;;19.33;;
1753;SDS011;58380;48.312;9.246;2023-02-23T07:46:23;36.22;;;18.40;;
1753;SDS011;58380;48.312;9.246;2023-02-23T07:51:15;62.65;;;28.02;;
1753;SDS011;58380;48.312;9.246;2023-02-23T07:53:41;42.58;;;20.50;;
1753;SDS011;58380;48.312;9.246;2023-02-23T07:56:08;28.35;;;15.02;;
1753;SDS011;58380;48.312;9.246;2023-02-23T07:58:36;39.63;;;17.50;;
1753;SDS011;58380;48.312;9.246;2023-02-23T08:01:06;28.40;;;13.32;;
1753;SDS011;58380;48.312;9.246;2023-02-23T08:03:33;26.63;;;14.15;;
1753;SDS011;58380;48.312;9.246;2023-02-23T08:05:58;36.50;;;19.45;;
1753;SDS011;58380;48.312;9.246;2023-02-23T08:08:24;48.45;;;23.10;;
1753;SDS011;58380;48.312;9.246;2023-02-23T08:10:57;31.88;;;15.32;;
1753;SDS011;58380;48.312;9.246;2023-02-23T08:13:25;23.35;;;11.38;;
1753;SDS011;58380;48.312;9.246;2023-02-23T08:15:50;26.10;;;13.23;;
1753;SDS011;58380;48.312;9.246;2023-02-23T08:18:16;27.00;;;13.87;;
1753;SDS011;58380;48.312;9.246;2023-02-23T08:20:41;54.13;;;23.20;;
1753;SDS011;58380;48.312;9.246;2023-02-23T08:23:07;66.60;;;27.93;;
1753;SDS011;58380;48.312;9.246;2023-02-23T08:25:32;115.93;;;42.73;;
1753;SDS011;58380;48.312;9.246;2023-02-23T08:27:57;61.43;;;25.23;;
1753;SDS011;58380;48.312;9.246;2023-02-23T08:30:28;40.47;;;20.15;;
1753;SDS011;58380;48.312;9.246;2023-02-23T08:32:54;21.88;;;12.43;;
1753;SDS011;58380;48.312;9.246;2023-02-23T08:35:19;17.02;;;9.52;;
1753;SDS011;58380;48.312;9.246;2023-02-23T08:37:45;19.02;;;10.30;;
1753;SDS011;58380;48.312;9.246;2023-02-23T08:40:11;18.37;;;10.47;;
1753;SDS011;58380;48.312;9.246;2023-02-23T08:42:39;18.35;;;10.10;;
1753;SDS011;58380;48.312;9.246;2023-02-23T08:45:05;23.63;;;11.57;;
1753;SDS011;58380;48.312;9.246;2023-02-23T08:47:31;22.08;;;11.23;;
1753;SDS011;58380;48.312;9.246;2023-02-23T08:52:26;21.77;;;9.35;;
1753;SDS011;58380;48.312;9.246;2023-02-23T08:54:52;21.77;;;10.07;;
1753;SDS011;58380;48.312;9.246;2023-02-23T08:57:19;19.42;;;9.32;;
1753;SDS011;58380;48.312;9.246;2023-02-23T08:59:44;18.27;;;10.37;;
1753;SDS011;58380;48.312;9.246;2023-02-23T09:02:10;21.03;;;10.77;;
1753;SDS011;58380;48.312;9.246;2023-02-23T09:04:38;18.30;;;9.63;;
1753;SDS011;58380;48.312;9.246;2023-02-23T09:07:06;20.60;;;9.07;;
1753;SDS011;58380;48.312;9.246;2023-02-23T09:09:34;13.75;;;8.00;;
1753;SDS011;58380;48.312;9.246;2023-02-23T09:11:59;16.50;;;9.20;;
1753;SDS011;58380;48.312;9.246;2023-02-23T09:14:26;15.37;;;8.47;;
1753;SDS011;58380;48.312;9.246;2023-02-23T09:16:52;19.38;;;9.73;;
1753;SDS011;58380;48.312;9.246;2023-02-23T09:19:17;16.73;;;9.25;;
1753;SDS011;58380;48.312;9.246;2023-02-23T09:21:44;18.55;;;9.75;;
1753;SDS011;58380;48.312;9.246;2023-02-23T09:24:10;19.33;;;10.45;;
1753;SDS011;58380;48.312;9.246;2023-02-23T09:26:35;21.63;;;10.50;;
1753;SDS011;58380;48.312;9.246;2023-02-23T09:29:04;17.90;;;9.52;;
1753;SDS011;58380;48.312;9.246;2023-02-23T09:31:30;18.23;;;10.00;;
1753;SDS011;58380;48.312;9.246;2023-02-23T09:33:56;19.37;;;10.47;;
1753;SDS011;58380;48.312;9.246;2023-02-23T09:36:24;19.90;;;11.15;;
1753;SDS011;58380;48.312;9.246;2023-02-23T09:38:54;23.30;;;11.90;;
1753;SDS011;58380;48.312;9.246;2023-02-23T09:43:53;18.90;;;10.13;;
1753;SDS011;58380;48.312;9.246;2023-02-23T09:46:40;20.30;;;10.07;;
1753;SDS011;58380;48.312;9.246;2023-02-23T09:49:36;20.85;;;9.63;;
1753;SDS011;58380;48.312;9.246;2023-02-23T09:52:08;18.27;;;9.65;;
1753;SDS011;58380;48.312;9.246;2023-02-23T09:54:43;15.57;;;8.95;;
1753;SDS011;58380;48.312;9.246;2023-02-23T09:57:11;19.58;;;9.68;;
1753;SDS011;58380;48.312;9.246;2023-02-23T09:59:43;18.90;;;9.75;;
1753;SDS011;58380;48.312;9.246;2023-02-23T10:02:30;23.73;;;9.98;;
1753;SDS011;58380;48.312;9.246;2023-02-23T10:05:08;16.67;;;9.40;;
1753;SDS011;58380;48.312;9.246;2023-02-23T10:07:45;18.60;;;9.93;;
1753;SDS011;58380;48.312;9.246;2023-02-23T10:10:34;19.05;;;9.35;;
1753;SDS011;58380;48.312;9.246;2023-02-23T10:16:27;19.15;;;9.50;;
1753;SDS011;58380;48.312;9.246;2023-02-23T10:19:11;20.15;;;9.20;;
1753;SDS011;58380;48.312;9.246;2023-02-23T10:22:00;16.35;;;8.05;;
1753;SDS011;58380;48.312;9.246;2023-02-23T10:24:34;18.35;;;9.07;;
1753;SDS011;58380;48.312;9.246;2023-02-23T10:27:07;16.95;;;8.20;;
1753;SDS011;58380;48.312;9.246;2023-02-23T10:34:56;16.48;;;7.55;;
1753;SDS011;58380;48.312;9.246;2023-02-23T10:37:22;12.93;;;7.05;;
1753;SDS011;58380;48.312;9.246;2023-02-23T10:39:51;13.40;;;6.50;;
1753;SDS011;58380;48.312;9.246;2023-02-23T10:42:21;13.40;;;6.50;;
1753;SDS011;58380;48.312;9.246;2023-02-23T10:44:56;19.35;;;8.05;;
1753;SDS011;58380;48.312;9.246;2023-02-23T10:47:26;17.85;;;6.68;;
1753;SDS011;58380;48.312;9.246;2023-02-23T10:49:57;12.57;;;6.80;;
1753;SDS011;58380;48.312;9.246;2023-02-23T11:00:53;13.75;;;6.85;;
1753;SDS011;58380;48.312;9.246;2023-02-23T11:03:26;16.95;;;7.50;;
1753;SDS011;58380;48.312;9.246;2023-02-23T11:05:57;15.07;;;7.53;;
1753;SDS011;58380;48.312;9.246;2023-02-23T11:08:31;14.93;;;7.93;;
1753;SDS011;58380;48.312;9.246;2023-02-23T11:11:00;19.20;;;7.93;;
1753;SDS011;58380;48.312;9.246;2023-02-23T11:16:04;26.90;;;13.63;;
1753;SDS011;58380;48.312;9.246;2023-02-23T11:18:34;15.15;;;8.00;;
1753;SDS011;58380;48.312;9.246;2023-02-23T11:21:01;21.58;;;9.02;;
1753;SDS011;58380;48.312;9.246;2023-02-23T11:23:33;17.02;;;8.45;;
1753;SDS011;58380;48.312;9.246;2023-02-23T11:26:05;14.07;;;6.88;;
1753;SDS011;58380;48.312;9.246;2023-02-23T11:29:09;17.10;;;7.43;;
1753;SDS011;58380;48.312;9.246;2023-02-23T11:31:57;16.67;;;8.00;;
1753;SDS011;58380;48.312;9.246;2023-02-23T11:34:28;16.52;;;8.32;;
1753;SDS011;58380;48.312;9.246;2023-02-23T11:37:17;16.60;;;8.30;;
1753;SDS011;58380;48.312;9.246;2023-02-23T11:39:52;18.58;;;8.15;;
1753;SDS011;58380;48.312;9.246;2023-02-23T11:42:27;18.70;;;8.05;;
1753;SDS011;58380;48.312;9.246;2023-02-23T11:45:13;20.02;;;7.78;;
1753;SDS011;58380;48.312;9.246;2023-02-23T11:47:45;12.15;;;6.68;;
1753;SDS011;58380;48.312;9.246;2023-02-23T11:50:33;14.15;;;6.78;;
1753;SDS011;58380;48.312;9.246;2023-02-23T11:53:02;10.98;;;6.05;;
1753;SDS011;58380;48.312;9.246;2023-02-23T11:55:31;12.82;;;6.03;;
1753;SDS011;58380;48.312;9.246;2023-02-23T12:00:56;12.70;;;5.63;;
1753;SDS011;58380;48.312;9.246;2023-02-23T12:03:25;15.82;;;6.55;;
1753;SDS011;58380;48.312;9.246;2023-02-23T12:05:56;14.35;;;6.10;;
1753;SDS011;58380;48.312;9.246;2023-02-23T12:11:11;14.90;;;6.60;;
1753;SDS011;58380;48.312;9.246;2023-02-23T12:13:48;16.88;;;7.75;;
1753;SDS011;58380;48.312;9.246;2023-02-23T12:16:32;16.05;;;6.45;;
1753;SDS011;58380;48.312;9.246;2023-02-23T12:19:11;13.52;;;6.63;;
1753;SDS011;58380;48.312;9.246;2023-02-23T12:22:10;12.73;;;6.70;;
1753;SDS011;58380;48.312;9.246;2023-02-23T12:27:59;12.80;;;6.53;;
1753;SDS011;58380;48.312;9.246;2023-02-23T12:35:53;14.73;;;7.10;;
1753;SDS011;58380;48.312;9.246;2023-02-23T12:38:32;18.83;;;8.85;;
1753;SDS011;58380;48.312;9.246;2023-02-23T12:41:13;18.05;;;7.72;;
1753;SDS011;58380;48.312;9.246;2023-02-23T12:43:54;16.27;;;7.65;;
1753;SDS011;58380;48.312;9.246;2023-02-23T12:46:36;16.75;;;7.90;;
1753;SDS011;58380;48.312;9.246;2023-02-23T12:52:12;21.58;;;9.25;;
1753;SDS011;58380;48.312;9.246;2023-02-23T12:54:46;19.88;;;9.80;;
1753;SDS011;58380;48.312;9.246;2023-02-23T12:59:59;17.98;;;8.48;;
1753;SDS011;58380;48.312;9.246;2023-02-23T13:05:37;18.45;;;7.75;;
1753;SDS011;58380;48.312;9.246;2023-02-23T13:08:17;18.38;;;8.48;;
1753;SDS011;58380;48.312;9.246;2023-02-23T13:14:01;13.82;;;6.20;;
1753;SDS011;58380;48.312;9.246;2023-02-23T13:16:46;11.40;;;5.90;;
1753;SDS011;58380;48.312;9.246;2023-02-23T13:21:56;13.05;;;5.70;;
1753;SDS011;58380;48.312;9.246;2023-02-23T13:25:06;12.57;;;5.50;;
1753;SDS011;58380;48.312;9.246;2023-02-23T13:28:12;14.05;;;5.30;;
1753;SDS011;58380;48.312;9.246;2023-02-23T13:30:46;13.45;;;5.90;;
1753;SDS011;58380;48.312;9.246;2023-02-23T13:33:26;14.43;;;6.35;;
1753;SDS011;58380;48.312;9.246;2023-02-23T13:35:58;20.63;;;6.55;;
1753;SDS011;58380;48.312;9.246;2023-02-23T13:38:32;15.45;;;7.03;;
1753;SDS011;58380;48.312;9.246;2023-02-23T13:44:02;16.63;;;6.43;;
1753;SDS011;58380;48.312;9.246;2023-02-23T13:46:55;15.70;;;6.38;;
1753;SDS011;58380;48.312;9.246;2023-02-23T13:49:56;17.05;;;6.97;;
1753;SDS011;58380;48.312;9.246;2023-02-23T13:52:51;16.80;;;7.53;;
1753;SDS011;58380;48.312;9.246;2023-02-23T13:57:51;18.27;;;6.90;;
1753;SDS011;58380;48.312;9.246;2023-02-23T14:02:45;9.20;;;5.10;;
1753;SDS011;58380;48.312;9.246;2023-02-23T14:07:46;8.73;;;3.20;;
1753;SDS011;58380;48.312;9.246;2023-02-23T14:10:21;7.38;;;3.25;;
1753;SDS011;58380;48.312;9.246;2023-02-23T14:20:55;9.52;;;2.88;;
1753;SDS011;58380;48.312;9.246;2023-02-23T14:23:33;7.25;;;2.35;;
1753;SDS011;58380;48.312;9.246;2023-02-23T14:29:37;8.38;;;2.00;;
1753;SDS011;58380;48.312;9.246;2023-02-23T14:31:52;6.32;;;2.13;;
1753;SDS011;58380;48.312;9.246;2023-02-23T14:37:31;7.05;;;2.33;;
1753;SDS011;58380;48.312;9.246;2023-02-23T14:40:13;8.45;;;2.45;;
1753;SDS011;58380;48.312;9.246;2023-02-23T14:42:49;9.00;;;2.50;;
1753;SDS011;58380;48.312;9.246;2023-02-23T14:45:21;8.23;;;2.80;;
1753;SDS011;58380;48.312;9.246;2023-02-23T14:48:04;6.65;;;2.67;;
1753;SDS011;58380;48.312;9.246;2023-02-23T14:50:41;7.25;;;3.20;;
1753;SDS011;58380;48.312;9.246;2023-02-23T14:53:12;8.80;;;3.00;;
1753;SDS011;58380;48.312;9.246;2023-02-23T14:55:45;8.70;;;3.17;;
1753;SDS011;58380;48.312;9.246;2023-02-23T14:58:23;7.30;;;2.97;;
1753;SDS011;58380;48.312;9.246;2023-02-23T15:00:55;9.27;;;3.10;;
1753;SDS011;58380;48.312;9.246;2023-02-23T15:03:20;9.40;;;4.20;;
1753;SDS011;58380;48.312;9.246;2023-02-23T15:05:56;10.10;;;4.07;;
1753;SDS011;58380;48.312;9.246;2023-02-23T15:08:25;9.45;;;3.90;;
1753;SDS011;58380;48.312;9.246;2023-02-23T15:13:39;8.38;;;4.40;;
1753;SDS011;58380;48.312;9.246;2023-02-23T15:16:19;11.20;;;4.30;;
1753;SDS011;58380;48.312;9.246;2023-02-23T15:21:58;11.35;;;4.72;;
1753;SDS011;58380;48.312;9.246;2023-02-23T15:24:29;11.75;;;4.00;;
1753;SDS011;58380;48.312;9.246;2023-02-23T15:27:05;10.15;;;3.80;;
1753;SDS011;58380;48.312;9.246;2023-02-23T15:29:39;8.80;;;4.10;;
1753;SDS011;58380;48.312;9.246;2023-02-23T15:32:37;9.10;;;4.10;;
1753;SDS011;58380;48.312;9.246;2023-02-23T15:35:02;10.45;;;4.22;;
1753;SDS011;58380;48.312;9.246;2023-02-23T15:37:29;13.23;;;4.13;;
1753;SDS011;58380;48.312;9.246;2023-02-23T15:40:04;10.65;;;4.20;;
1753;SDS011;58380;48.312;9.246;2023-02-23T15:42:40;8.15;;;3.88;;
1753;SDS011;58380;48.312;9.246;2023-02-23T15:48:20;10.25;;;3.85;;
1753;SDS011;58380;48.312;9.246;2023-02-23T15:50:51;7.40;;;4.20;;
1753;SDS011;58380;48.312;9.246;2023-02-23T15:58:55;10.38;;;3.80;;
1753;SDS011;58380;48.312;9.246;2023-02-23T16:01:38;9.48;;;4.00;;
1753;SDS011;58380;48.312;9.246;2023-02-23T16:06:37;10.00;;;4.10;;
1753;SDS011;58380;48.312;9.246;2023-02-23T16:12:42;11.25;;;5.10;;
1753;SDS011;58380;48.312;9.246;2023-02-23T16:15:27;13.20;;;5.18;;
1753;SDS011;58380;48.312;9.246;2023-02-23T16:23:03;10.43;;;4.88;;
1753;SDS011;58380;48.312;9.246;2023-02-23T16:25:31;13.77;;;6.05;;
1753;SDS011;58380;48.312;9.246;2023-02-23T16:28:02;14.23;;;5.10;;
1753;SDS011;58380;48.312;9.246;2023-02-23T16:30:40;16.90;;;7.07;;
1753;SDS011;58380;48.312;9.246;2023-02-23T16:33:15;13.65;;;6.20;;
1753;SDS011;58380;48.312;9.246;2023-02-23T16:35:49;17.58;;;7.18;;
1753;SDS011;58380;48.312;9.246;2023-02-23T16:41:17;15.68;;;6.68;;
1753;SDS011;58380;48.312;9.246;2023-02-23T16:43:46;13.80;;;5.88;;
1753;SDS011;58380;48.312;9.246;2023-02-23T16:46:17;15.60;;;6.82;;
1753;SDS011;58380;48.312;9.246;2023-02-23T16:48:47;21.67;;;9.13;;
1753;SDS011;58380;48.312;9.246;2023-02-23T16:51:17;15.97;;;8.07;;
1753;SDS011;58380;48.312;9.246;2023-02-23T16:53:45;51.13;;;17.98;;
1753;SDS011;58380;48.312;9.246;2023-02-23T16:56:11;20.02;;;7.88;;
1753;SDS011;58380;48.312;9.246;2023-02-23T16:58:44;21.88;;;8.73;;
1753;SDS011;58380;48.312;9.246;2023-02-23T17:01:19;17.98;;;6.50;;
1753;SDS011;58380;48.312;9.246;2023-02-23T17:03:45;13.20;;;4.93;;
1753;SDS011;58380;48.312;9.246;2023-02-23T17:06:10;15.25;;;4.80;;
1753;SDS011;58380;48.312;9.246;2023-02-23T17:08:36;15.52;;;6.78;;
1753;SDS011;58380;48.312;9.246;2023-02-23T17:11:02;14.40;;;6.80;;
1753;SDS011;58380;48.312;9.246;2023-02-23T17:13:29;19.65;;;8.68;;
1753;SDS011;58380;48.312;9.246;2023-02-23T17:16:00;12.82;;;5.40;;
1753;SDS011;58380;48.312;9.246;2023-02-23T17:18:32;9.10;;;2.88;;
1753;SDS011;58380;48.312;9.246;2023-02-23T17:21:02;5.85;;;3.03;;
1753;SDS011;58380;48.312;9.246;2023-02-23T17:23:32;5.72;;;1.90;;
1753;SDS011;58380;48.312;9.246;2023-02-23T17:26:07;6.20;;;2.53;;
1753;SDS011;58380;48.312;9.246;2023-02-23T17:28:35;6.47;;;3.03;;
1753;SDS011;58380;48.312;9.246;2023-02-23T17:31:01;7.53;;;2.42;;
1753;SDS011;58380;48.312;9.246;2023-02-23T17:33:28;5.18;;;1.95;;
1753;SDS011;58380;48.312;9.246;2023-02-23T17:35:58;4.68;;;1.35;;
1753;SDS011;58380;48.312;9.246;2023-02-23T17:38:25;4.72;;;1.25;;
1753;SDS011;58380;48.312;9.246;2023-02-23T17:41:08;6.03;;;1.60;;
1753;SDS011;58380;48.312;9.246;2023-02-23T17:43:41;3.97;;;1.40;;
1753;SDS011;58380;48.312;9.246;2023-02-23T17:46:08;2.13;;;1.15;;
1753;SDS011;58380;48.312;9.246;2023-02-23T17:48:34;7.57;;;2.22;;
1753;SDS011;58380;48.312;9.246;2023-02-23T17:51:00;5.20;;;1.20;;
1753;SDS011;58380;48.312;9.246;2023-02-23T17:53:33;5.78;;;1.65;;
1753;SDS011;58380;48.312;9.246;2023-02-23T17:56:00;2.05;;;1.20;;
1753;SDS011;58380;48.312;9.246;2023-02-23T17:58:25;2.78;;;1.67;;
1753;SDS011;58380;48.312;9.246;2023-02-23T18:00:55;7.05;;;2.05;;
1753;SDS011;58380;48.312;9.246;2023-02-23T18:03:25;6.28;;;1.60;;
1753;SDS011;58380;48.312;9.246;2023-02-23T18:05:57;2.90;;;1.40;;
1753;SDS011;58380;48.312;9.246;2023-02-23T18:08:35;7.70;;;2.50;;
1753;SDS011;58380;48.312;9.246;2023-02-23T18:11:02;20.20;;;9.35;;
1753;SDS011;58380;48.312;9.246;2023-02-23T18:13:28;15.00;;;6.80;;
1753;SDS011;58380;48.312;9.246;2023-02-23T18:15:58;7.95;;;4.20;;
1753;SDS011;58380;48.312;9.246;2023-02-23T18:18:32;4.25;;;1.95;;
1753;SDS011;58380;48.312;9.246;2023-02-23T18:20:58;9.95;;;2.00;;
1753;SDS011;58380;48.312;9.246;2023-02-23T18:23:25;7.30;;;2.58;;
1753;SDS011;58380;48.312;9.246;2023-02-23T18:25:54;6.43;;;2.65;;
1753;SDS011;58380;48.312;9.246;2023-02-23T18:28:29;5.63;;;2.70;;
1753;SDS011;58380;48.312;9.246;2023-02-23T18:30:54;4.75;;;1.50;;
1753;SDS011;58380;48.312;9.246;2023-02-23T18:35:46;4.32;;;1.50;;
1753;SDS011;58380;48.312;9.246;2023-02-23T18:38:12;6.23;;;1.67;;
1753;SDS011;58380;48.312;9.246;2023-02-23T18:40:38;12.85;;;6.65;;
1753;SDS011;58380;48.312;9.246;2023-02-23T18:43:03;14.30;;;5.53;;
1753;SDS011;58380;48.312;9.246;2023-02-23T18:45:30;8.55;;;3.00;;
1753;SDS011;58380;48.312;9.246;2023-02-23T18:47:55;6.90;;;2.92;;
1753;SDS011;58380;48.312;9.246;2023-02-23T18:50:21;6.47;;;2.65;;
1753;SDS011;58380;48.312;9.246;2023-02-23T18:52:50;13.27;;;4.00;;
1753;SDS011;58380;48.312;9.246;2023-02-23T18:55:19;9.75;;;2.67;;
1753;SDS011;58380;48.312;9.246;2023-02-23T18:57:46;10.20;;;4.15;;
1753;SDS011;58380;48.312;9.246;2023-02-23T19:00:14;10.23;;;3.90;;
1753;SDS011;58380;48.312;9.246;2023-02-23T19:02:42;10.73;;;4.20;;
1753;SDS011;58380;48.312;9.246;2023-02-23T19:05:10;9.13;;;4.15;;
1753;SDS011;58380;48.312;9.246;2023-02-23T19:07:37;14.32;;;4.03;;
1753;SDS011;58380;48.312;9.246;2023-02-23T19:10:07;105.20;;;8.48;;
1753;SDS011;58380;48.312;9.246;2023-02-23T19:12:39;7.40;;;3.40;;
1753;SDS011;58380;48.312;9.246;2023-02-23T19:15:06;7.45;;;3.70;;
1753;SDS011;58380;48.312;9.246;2023-02-23T19:17:32;5.55;;;3.00;;
1753;SDS011;58380;48.312;9.246;2023-02-23T19:19:59;7.03;;;3.05;;
1753;SDS011;58380;48.312;9.246;2023-02-23T19:22:25;5.57;;;3.07;;
1753;SDS011;58380;48.312;9.246;2023-02-23T19:24:52;5.65;;;3.53;;
1753;SDS011;58380;48.312;9.246;2023-02-23T19:27:17;7.63;;;3.23;;
1753;SDS011;58380;48.312;9.246;2023-02-23T19:29:43;33.55;;;4.05;;
1753;SDS011;58380;48.312;9.246;2023-02-23T19:32:10;51.10;;;4.28;;
1753;SDS011;58380;48.312;9.246;2023-02-23T19:34:40;6.57;;;3.05;;
1753;SDS011;58380;48.312;9.246;2023-02-23T19:37:07;6.85;;;3.50;;
1753;SDS011;58380;48.312;9.246;2023-02-23T19:39:33;7.93;;;3.50;;
1753;SDS011;58380;48.312;9.246;2023-02-23T19:42:00;9.43;;;3.42;;
1753;SDS011;58380;48.312;9.246;2023-02-23T19:44:26;19.77;;;3.90;;
1753;SDS011;58380;48.312;9.246;2023-02-23T19:46:52;13.40;;;2.73;;
1753;SDS011;58380;48.312;9.246;2023-02-23T19:49:17;100.07;;;5.60;;
1753;SDS011;58380;48.312;9.246;2023-02-23T19:51:42;12.93;;;3.67;;
1753;SDS011;58380;48.312;9.246;2023-02-23T19:54:09;6.10;;;2.90;;
1753;SDS011;58380;48.312;9.246;2023-02-23T19:56:35;19.83;;;3.85;;
1753;SDS011;58380;48.312;9.246;2023-02-23T19:59:02;11.68;;;2.40;;
1753;SDS011;58380;48.312;9.246;2023-02-23T20:01:28;29.80;;;2.42;;
1753;SDS011;58380;48.312;9.246;2023-02-23T20:03:54;28.42;;;2.65;;
1753;SDS011;58380;48.312;9.246;2023-02-23T20:06:26;17.70;;;2.10;;
1753;SDS011;58380;48.312;9.246;2023-02-23T20:08:58;19.80;;;2.38;;
1753;SDS011;58380;48.312;9.246;2023-02-23T20:11:27;46.13;;;3.30;;
1753;SDS011;58380;48.312;9.246;2023-02-23T20:13:57;36.10;;;2.60;;
1753;SDS011;58380;48.312;9.246;2023-02-23T20:16:24;15.45;;;2.15;;
1753;SDS011;58380;48.312;9.246;2023-02-23T20:18:53;30.25;;;2.58;;
1753;SDS011;58380;48.312;9.246;2023-02-23T20:21:21;49.42;;;3.42;;
1753;SDS011;58380;48.312;9.246;2023-02-23T20:23:50;18.63;;;2.20;;
1753;SDS011;58380;48.312;9.246;2023-02-23T20:26:20;19.38;;;2.63;;
1753;SDS011;58380;48.312;9.246;2023-02-23T20:28:53;34.08;;;3.60;;
1753;SDS011;58380;48.312;9.246;2023-02-23T20:31:25;44.53;;;7.88;;
1753;SDS011;58380;48.312;9.246;2023-02-23T20:33:55;23.77;;;7.07;;
1753;SDS011;58380;48.312;9.246;2023-02-23T20:36:25;97.90;;;10.85;;
1753;SDS011;58380;48.312;9.246;2023-02-23T20:38:50;84.35;;;10.73;;
1753;SDS011;58380;48.312;9.246;2023-02-23T20:41:16;150.85;;;13.07;;
1753;SDS011;58380;48.312;9.246;2023-02-23T20:43:42;209.32;;;12.07;;
1753;SDS011;58380;48.312;9.246;2023-02-23T20:46:11;114.82;;;9.02;;
1753;SDS011;58380;48.312;9.246;2023-02-23T20:48:39;113.25;;;9.02;;
1753;SDS011;58380;48.312;9.246;2023-02-23T20:51:06;47.88;;;8.00;;
1753;SDS011;58380;48.312;9.246;2023-02-23T20:53:37;56.47;;;8.02;;
1753;SDS011;58380;48.312;9.246;2023-02-23T20:56:04;55.20;;;7.32;;
1753;SDS011;58380;48.312;9.246;2023-02-23T20:58:33;151.93;;;9.20;;
1753;SDS011;58380;48.312;9.246;2023-02-23T21:00:58;93.47;;;6.55;;
1753;SDS011;58380;48.312;9.246;2023-02-23T21:03:30;135.90;;;8.90;;
1753;SDS011;58380;48.312;9.246;2023-02-23T21:05:56;87.15;;;7.50;;
1753;SDS011;58380;48.312;9.246;2023-02-23T21:08:21;58.57;;;6.67;;
1753;SDS011;58380;48.312;9.246;2023-02-23T21:10:47;19.17;;;5.63;;
1753;SDS011;58380;48.312;9.246;2023-02-23T21:13:14;13.60;;;5.43;;
1753;SDS011;58380;48.312;9.246;2023-02-23T21:15:42;15.15;;;5.93;;
1753;SDS011;58380;48.312;9.246;2023-02-23T21:18:08;38.95;;;6.97;;
1753;SDS011;58380;48.312;9.246;2023-02-23T21:20:37;26.23;;;6.43;;
1753;SDS011;58380;48.312;9.246;2023-02-23T21:23:05;8.57;;;4.28;;
1753;SDS011;58380;48.312;9.246;2023-02-23T21:25:31;13.70;;;5.10;;
1753;SDS011;58380;48.312;9.246;2023-02-23T21:27:57;11.07;;;4.63;;
1753;SDS011;58380;48.312;9.246;2023-02-23T21:30:25;15.77;;;4.50;;
1753;SDS011;58380;48.312;9.246;2023-02-23T21:32:52;21.38;;;4.40;;
1753;SDS011;58380;48.312;9.246;2023-02-23T21:35:18;9.82;;;4.40;;
1753;SDS011;58380;48.312;9.246;2023-02-23T21:37:45;8.65;;;5.00;;
1753;SDS011;58380;48.312;9.246;2023-02-23T21:40:12;9.98;;;4.75;;
1753;SDS011;58380;48.312;9.246;2023-02-23T21:42:42;15.88;;;5.25;;
1753;SDS011;58380;48.312;9.246;2023-02-23T21:45:08;16.90;;;5.23;;
1753;SDS011;58380;48.312;9.246;2023-02-23T21:47:39;11.75;;;5.45;;
1753;SDS011;58380;48.312;9.246;2023-02-23T21:50:07;12.05;;;5.80;;
1753;SDS011;58380;48.312;9.246;2023-02-23T21:52:37;16.60;;;8.38;;
1753;SDS011;58380;48.312;9.246;2023-02-23T21:55:07;18.77;;;9.18;;
1753;SDS011;58380;48.312;9.246;2023-02-23T21:57:39;16.38;;;7.95;;
1753;SDS011;58380;48.312;9.246;2023-02-23T22:00:06;18.20;;;8.25;;
1753;SDS011;58380;48.312;9.246;2023-02-23T22:02:34;16.35;;;8.68;;
1753;SDS011;58380;48.312;9.246;2023-02-23T22:05:02;15.80;;;8.15;;
1753;SDS011;58380;48.312;9.246;2023-02-23T22:07:28;13.93;;;7.82;;
1753;SDS011;58380;48.312;9.246;2023-02-23T22:09:53;19.10;;;8.10;;
1753;SDS011;58380;48.312;9.246;2023-02-23T22:12:19;20.52;;;9.50;;
1753;SDS011;58380;48.312;9.246;2023-02-23T22:14:44;21.83;;;11.02;;
1753;SDS011;58380;48.312;9.246;2023-02-23T22:17:10;20.33;;;10.53;;
1753;SDS011;58380;48.312;9.246;2023-02-23T22:19:35;23.73;;;10.67;;
1753;SDS011;58380;48.312;9.246;2023-02-23T22:22:01;27.15;;;10.90;;
1753;SDS011;58380;48.312;9.246;2023-02-23T22:24:26;26.63;;;9.80;;
1753;SDS011;58380;48.312;9.246;2023-02-23T22:26:52;27.13;;;12.30;;
1753;SDS011;58380;48.312;9.246;2023-02-23T22:29:21;28.23;;;13.10;;
1753;SDS011;58380;48.312;9.246;2023-02-23T22:31:49;28.92;;;13.45;;
1753;SDS011;58380;48.312;9.246;2023-02-23T22:36:40;25.33;;;11.52;;
1753;SDS011;58380;48.312;9.246;2023-02-23T22:39:06;33.83;;;12.85;;
1753;SDS011;58380;48.312;9.246;2023-02-23T22:41:36;24.25;;;11.80;;
1753;SDS011;58380;48.312;9.246;2023-02-23T22:44:07;23.10;;;11.45;;
1753;SDS011;58380;48.312;9.246;2023-02-23T22:46:36;38.38;;;11.77;;
1753;SDS011;58380;48.312;9.246;2023-02-23T22:49:03;34.35;;;11.43;;
1753;SDS011;58380;48.312;9.246;2023-02-23T22:51:30;28.98;;;10.23;;
1753;SDS011;58380;48.312;9.246;2023-02-23T22:53:56;40.30;;;11.32;;
1753;SDS011;58380;48.312;9.246;2023-02-23T22:56:21;42.80;;;10.33;;
1753;SDS011;58380;48.312;9.246;2023-02-23T22:58:47;25.17;;;8.50;;
